< < Back
Terminal Aerodrome Forecast


Current Version              Previous Versions:   1  2  3  4  5  6  7  8  9  

Terminal Aerodrome Forecast

450
FTUS42 KFFC 292300
TAFPDK
TAF
KPDK 292323Z 3000/3024 30008KT P6SM FEW030 SCT120
     FM300400 32004KT P6SM FEW120
     FM301400 35008KT P6SM SKC=



Latest METAR

049
SAUS70 KWBC 301900 RRM
MTRPDK
METAR KPDK 301853Z 00000KT 10SM CLR 19/03 A3000 RMK AO2 SLP157
T01890028


USA.gov is the U.S. government's official web portal to all federal, state and local government web resources and services.